createdAt,value
2023-05-13T00:00:02.046Z,4.50
2023-05-13T00:02:49.900Z,4.43
2023-05-13T00:05:35.248Z,4.30
2023-05-13T00:08:20.761Z,4.60
2023-05-13T00:11:06.104Z,4.10
2023-05-13T00:13:51.382Z,4.18
2023-05-13T00:16:36.787Z,4.68
2023-05-13T00:19:21.821Z,4.97
2023-05-13T00:22:06.967Z,4.53
2023-05-13T00:24:52.066Z,4.68
2023-05-13T00:27:37.581Z,4.60
2023-05-13T00:30:23.201Z,4.45
2023-05-13T00:33:08.615Z,4.80
2023-05-13T00:35:53.977Z,4.82
2023-05-13T00:38:39.424Z,5.05
2023-05-13T00:41:24.869Z,4.53
2023-05-13T00:44:10.043Z,4.40
2023-05-13T00:46:55.093Z,4.90
2023-05-13T00:49:40.386Z,4.35
2023-05-13T00:52:25.715Z,3.55
2023-05-13T00:55:11.672Z,4.68
2023-05-13T00:57:57.116Z,4.50
2023-05-13T01:01:02.164Z,4.43
2023-05-13T01:03:54.923Z,4.82
2023-05-13T01:07:01.299Z,4.45
2023-05-13T01:10:08.091Z,4.63
2023-05-13T01:12:58.488Z,4.53
2023-05-13T01:15:56.513Z,4.82
2023-05-13T01:18:52.675Z,4.22
2023-05-13T01:21:39.743Z,4.95
2023-05-13T01:24:24.855Z,4.60
2023-05-13T01:27:10.343Z,4.85
2023-05-13T01:29:56.616Z,4.88
2023-05-13T01:32:46.996Z,4.88
2023-05-13T01:35:34.727Z,4.70
2023-05-13T01:38:20.754Z,5.40
2023-05-13T01:41:09.789Z,4.50
2023-05-13T01:43:55.591Z,5.43
2023-05-13T01:46:42.557Z,4.45
2023-05-13T01:49:27.999Z,4.53
2023-05-13T01:52:13.369Z,4.72
2023-05-13T01:54:59.187Z,4.63
2023-05-13T01:57:44.491Z,4.72
2023-05-13T02:00:29.971Z,4.95
2023-05-13T02:03:15.311Z,4.70
2023-05-13T02:06:00.551Z,4.43
2023-05-13T02:08:46.054Z,5.10
2023-05-13T02:11:32.059Z,4.20
2023-05-13T02:14:17.668Z,5.13
2023-05-13T02:17:03.330Z,5.72
2023-05-13T02:19:48.798Z,5.93
2023-05-13T02:22:34.074Z,5.43
2023-05-13T02:25:19.401Z,4.95
2023-05-13T02:28:04.936Z,5.00
2023-05-13T02:30:51.241Z,4.78
2023-05-13T02:33:36.678Z,5.20
2023-05-13T02:36:22.222Z,4.72
2023-05-13T02:39:08.380Z,5.13
2023-05-13T02:41:57.911Z,4.95
2023-05-13T02:44:47.317Z,5.13
2023-05-13T02:47:34.271Z,5.43
2023-05-13T02:50:23.452Z,4.45
2023-05-13T02:53:09.127Z,4.60
2023-05-13T02:55:58.174Z,5.00
2023-05-13T02:58:44.740Z,4.95
2023-05-13T03:01:30.089Z,5.40
2023-05-13T03:04:15.445Z,5.40
2023-05-13T03:07:00.833Z,5.25
2023-05-13T03:09:46.353Z,5.03
2023-05-13T03:12:32.090Z,4.45
2023-05-13T03:15:17.251Z,4.80
2023-05-13T03:18:02.806Z,4.68
2023-05-13T03:20:48.239Z,4.63
2023-05-13T03:23:33.746Z,5.28
2023-05-13T03:26:19.923Z,5.25
2023-05-13T03:29:05.914Z,5.57
2023-05-13T03:31:52.989Z,4.35
2023-05-13T03:34:38.927Z,5.20
2023-05-13T03:37:24.666Z,5.10
2023-05-13T03:40:10.235Z,4.82
2023-05-13T03:42:55.656Z,4.90
2023-05-13T03:45:47.502Z,4.97
2023-05-13T03:48:36.076Z,4.80
2023-05-13T03:51:21.997Z,4.82
2023-05-13T03:54:08.076Z,4.65
2023-05-13T03:56:53.457Z,4.45
2023-05-13T03:59:38.563Z,4.63
2023-05-13T04:02:24.088Z,4.35
2023-05-13T04:05:09.796Z,5.75
2023-05-13T04:07:54.738Z,5.53
2023-05-13T04:10:42.250Z,5.53
2023-05-13T04:13:27.481Z,5.30
2023-05-13T04:16:12.682Z,5.20
2023-05-13T04:18:57.882Z,5.10
2023-05-13T04:21:43.293Z,5.05
2023-05-13T04:24:28.730Z,5.47
2023-05-13T04:27:14.022Z,4.68
2023-05-13T04:29:59.381Z,5.13
2023-05-13T04:32:46.073Z,5.07
2023-05-13T04:35:31.661Z,5.70
2023-05-13T04:38:19.446Z,4.45
2023-05-13T04:41:05.352Z,5.07
2023-05-13T04:43:56.090Z,4.38
2023-05-13T04:46:43.214Z,5.00
2023-05-13T04:49:28.613Z,5.28
2023-05-13T04:52:14.522Z,4.53
2023-05-13T04:54:59.648Z,4.50
2023-05-13T04:57:46.148Z,5.22
2023-05-13T05:00:31.796Z,4.55
2023-05-13T05:03:16.899Z,4.63
2023-05-13T05:06:02.262Z,4.97
2023-05-13T05:08:48.006Z,5.20
2023-05-13T05:11:33.500Z,5.70
2023-05-13T05:14:20.217Z,5.10
2023-05-13T05:17:07.815Z,4.70
2023-05-13T05:19:53.640Z,4.88
2023-05-13T05:22:38.915Z,4.85
2023-05-13T05:25:24.863Z,4.80
2023-05-13T05:28:10.158Z,4.60
2023-05-13T05:30:59.622Z,4.93
2023-05-13T05:33:46.470Z,4.38
2023-05-13T05:36:31.732Z,4.97
2023-05-13T05:39:17.116Z,4.80
2023-05-13T05:42:02.576Z,4.75
2023-05-13T05:44:48.096Z,4.20
2023-05-13T05:47:33.252Z,4.32
2023-05-13T05:50:18.594Z,4.00
2023-05-13T05:53:04.758Z,4.35
2023-05-13T05:55:52.949Z,4.15
2023-05-13T05:58:39.132Z,4.75
2023-05-13T06:01:24.352Z,4.25
2023-05-13T06:04:09.695Z,4.45
2023-05-13T06:06:54.999Z,5.00
2023-05-13T06:09:41.041Z,3.80
2023-05-13T06:12:26.745Z,4.60
2023-05-13T06:15:12.240Z,4.65
2023-05-13T06:17:57.824Z,4.18
2023-05-13T06:20:43.545Z,4.82
2023-05-13T06:23:28.979Z,3.75
2023-05-13T06:26:14.476Z,4.07
2023-05-13T06:28:59.522Z,3.75
2023-05-13T06:31:45.751Z,3.72
2023-05-13T06:34:31.285Z,4.20
2023-05-13T06:37:17.803Z,3.75
2023-05-13T06:40:04.187Z,3.63
2023-05-13T06:42:53.644Z,3.65
2023-05-13T06:45:46.474Z,3.70
2023-05-13T06:48:32.003Z,3.58
2023-05-13T06:51:17.567Z,3.50
2023-05-13T06:54:02.938Z,3.92
2023-05-13T06:56:48.010Z,3.28
2023-05-13T06:59:33.564Z,4.03
2023-05-13T07:02:18.483Z,3.55
2023-05-13T07:05:04.887Z,3.15
2023-05-13T07:07:53.546Z,3.10
2023-05-13T07:10:38.893Z,3.08
2023-05-13T07:13:24.614Z,2.97
2023-05-13T07:16:09.905Z,2.85
2023-05-13T07:18:55.238Z,3.58
2023-05-13T07:21:40.585Z,3.20
2023-05-13T07:24:26.075Z,3.10
2023-05-13T07:27:11.734Z,2.70
2023-05-13T07:29:56.815Z,3.20
2023-05-13T07:32:42.435Z,3.42
2023-05-13T07:35:27.463Z,3.10
2023-05-13T07:38:13.273Z,2.75
2023-05-13T07:40:59.069Z,2.83
2023-05-13T07:43:44.390Z,3.10
2023-05-13T07:46:29.870Z,2.72
2023-05-13T07:49:15.259Z,2.42
2023-05-13T07:52:01.093Z,2.72
2023-05-13T07:54:46.400Z,2.25
2023-05-13T07:57:31.542Z,3.03
2023-05-13T08:00:17.386Z,2.47
2023-05-13T08:03:03.069Z,3.05
2023-05-13T08:05:48.611Z,2.65
2023-05-13T08:08:34.065Z,3.20
2023-05-13T08:11:19.477Z,3.10
2023-05-13T08:14:05.621Z,3.58
2023-05-13T08:16:50.956Z,2.70
2023-05-13T08:19:36.626Z,3.25
2023-05-13T08:22:22.158Z,3.15
2023-05-13T08:25:07.535Z,3.03
2023-05-13T08:27:53.646Z,3.45
2023-05-13T08:30:42.004Z,3.58
2023-05-13T08:33:27.048Z,2.72
2023-05-13T08:36:12.702Z,3.53
2023-05-13T08:38:57.744Z,3.30
2023-05-13T08:41:44.875Z,2.90
2023-05-13T08:44:32.531Z,2.90
2023-05-13T08:47:38.749Z,3.13
2023-05-13T08:50:25.519Z,3.45
2023-05-13T08:53:12.955Z,2.90
2023-05-13T08:55:59.093Z,3.13
2023-05-13T08:58:44.447Z,2.85
2023-05-13T09:01:30.801Z,3.47
2023-05-13T09:04:16.408Z,3.05
2023-05-13T09:07:02.619Z,3.15
2023-05-13T09:09:48.234Z,3.20
2023-05-13T09:12:46.734Z,3.30
2023-05-13T09:15:33.171Z,3.80
2023-05-13T09:18:19.437Z,3.55
2023-05-13T09:21:26.005Z,2.60
2023-05-13T09:24:21.288Z,2.60
2023-05-13T09:27:06.555Z,3.25
2023-05-13T09:30:01.221Z,2.83
2023-05-13T09:33:05.170Z,2.85
2023-05-13T09:35:52.795Z,2.88
2023-05-13T09:38:39.107Z,3.00
2023-05-13T09:41:27.137Z,2.90
2023-05-13T09:44:13.394Z,3.40
2023-05-13T09:46:58.938Z,2.80
2023-05-13T09:49:53.101Z,2.25
2023-05-13T09:52:38.869Z,3.03
2023-05-13T09:55:28.963Z,3.03
2023-05-13T09:58:14.874Z,3.15
2023-05-13T10:01:00.453Z,3.25
2023-05-13T10:03:46.224Z,3.45
2023-05-13T10:06:33.158Z,2.92
2023-05-13T10:09:24.197Z,2.97
2023-05-13T10:12:14.218Z,2.70
2023-05-13T10:15:02.571Z,2.10
2023-05-13T10:17:49.902Z,2.70
2023-05-13T10:20:35.297Z,2.53
2023-05-13T10:23:22.521Z,3.10
2023-05-13T10:26:08.262Z,2.20
2023-05-13T10:28:55.591Z,2.80
2023-05-13T10:31:41.892Z,2.63
2023-05-13T10:34:28.624Z,2.70
2023-05-13T10:37:13.601Z,3.67
2023-05-13T10:40:16.477Z,3.08
2023-05-13T10:43:21.675Z,2.92
2023-05-13T10:46:11.401Z,2.70
2023-05-13T10:49:01.541Z,2.70
2023-05-13T10:51:48.325Z,2.90
2023-05-13T10:54:39.635Z,3.00
2023-05-13T10:58:06.449Z,2.67
2023-05-13T11:00:52.095Z,2.38
2023-05-13T11:03:39.997Z,2.28
2023-05-13T11:06:37.477Z,2.35
2023-05-13T11:09:22.880Z,2.38
2023-05-13T11:12:14.958Z,2.53
2023-05-13T11:15:00.545Z,2.80
2023-05-13T11:17:45.929Z,2.10
2023-05-13T11:20:37.384Z,2.30
2023-05-13T11:23:33.347Z,2.20
2023-05-13T11:26:21.902Z,2.35
2023-05-13T11:29:07.832Z,2.15
2023-05-13T11:32:00.310Z,2.50
2023-05-13T11:34:52.816Z,2.50
2023-05-13T11:37:43.732Z,2.47
2023-05-13T11:40:33.253Z,2.40
2023-05-13T11:43:21.540Z,2.22
2023-05-13T11:46:07.907Z,2.78
2023-05-13T11:48:53.313Z,2.38
2023-05-13T11:51:38.985Z,2.38
2023-05-13T11:54:24.253Z,2.70
2023-05-13T11:57:23.988Z,2.80
2023-05-13T12:00:10.678Z,2.30
2023-05-13T12:02:56.672Z,2.92
2023-05-13T12:05:44.335Z,2.10
2023-05-13T12:08:30.128Z,2.83
2023-05-13T12:11:15.576Z,3.30
2023-05-13T12:14:01.700Z,2.25
2023-05-13T12:16:47.442Z,2.45
2023-05-13T12:19:33.040Z,2.53
2023-05-13T12:22:21.967Z,2.40
2023-05-13T12:25:35.441Z,2.30
2023-05-13T12:28:21.483Z,2.63
2023-05-13T12:31:06.881Z,3.20
2023-05-13T12:33:52.397Z,2.20
2023-05-13T12:36:38.912Z,2.53
2023-05-13T12:39:24.602Z,2.53
2023-05-13T12:42:18.189Z,2.35
2023-05-13T12:45:04.046Z,3.40
2023-05-13T12:47:50.607Z,2.63
2023-05-13T12:50:35.707Z,2.50
2023-05-13T12:53:21.244Z,2.83
2023-05-13T12:56:07.308Z,2.03
2023-05-13T12:58:54.086Z,2.97
2023-05-13T13:01:39.633Z,2.33
2023-05-13T13:04:24.994Z,2.60
2023-05-13T13:07:14.559Z,2.55
2023-05-13T13:10:00.174Z,3.17
2023-05-13T13:12:45.856Z,2.30
2023-05-13T13:15:31.502Z,2.78
2023-05-13T13:18:16.698Z,2.50
2023-05-13T13:21:02.140Z,2.65
2023-05-13T13:26:59.719Z,2.20
2023-05-13T13:36:27.969Z,2.72
2023-05-13T13:39:36.955Z,3.13
2023-05-13T13:46:07.470Z,2.70
2023-05-13T13:48:53.008Z,2.63
2023-05-13T13:51:38.518Z,2.80
2023-05-13T13:54:23.915Z,2.97
2023-05-13T13:57:09.205Z,3.33
2023-05-13T13:59:54.564Z,3.05
2023-05-13T14:02:40.769Z,3.08
2023-05-13T14:05:26.091Z,2.42
2023-05-13T14:08:14.446Z,2.65
2023-05-13T14:10:59.536Z,2.13
2023-05-13T14:13:45.045Z,2.55
2023-05-13T14:16:31.111Z,2.67
2023-05-13T14:19:18.816Z,3.42
2023-05-13T14:22:04.445Z,2.63
2023-05-13T14:24:52.734Z,3.00
2023-05-13T14:27:37.776Z,2.70
2023-05-13T14:30:23.522Z,2.80
2023-05-13T14:33:09.648Z,2.70
2023-05-13T14:35:55.412Z,3.00
2023-05-13T14:38:41.964Z,2.80
2023-05-13T14:41:31.288Z,2.63
2023-05-13T14:44:16.445Z,3.05
2023-05-13T14:47:01.720Z,2.60
2023-05-13T14:49:47.225Z,2.65
2023-05-13T14:52:32.725Z,4.03
2023-05-13T14:55:18.198Z,2.85
2023-05-13T14:58:03.602Z,3.45
2023-05-13T15:00:49.111Z,2.88
2023-05-13T15:03:34.332Z,2.95
2023-05-13T15:06:20.089Z,3.25
2023-05-13T15:09:06.130Z,2.85
2023-05-13T15:11:51.441Z,3.00
2023-05-13T15:14:36.888Z,2.70
2023-05-13T15:17:22.440Z,2.60
2023-05-13T15:20:08.221Z,2.63
2023-05-13T15:22:53.329Z,2.35
2023-05-13T15:25:38.778Z,2.75
2023-05-13T15:28:23.919Z,3.45
2023-05-13T15:31:09.385Z,2.90
2023-05-13T15:33:55.153Z,3.08
2023-05-13T15:36:40.693Z,3.08
2023-05-13T15:39:25.965Z,2.90
2023-05-13T15:42:11.542Z,2.90
2023-05-13T15:44:56.851Z,3.10
2023-05-13T15:47:42.303Z,2.53
2023-05-13T15:50:27.620Z,2.88
2023-05-13T15:53:13.176Z,2.90
2023-05-13T15:55:58.654Z,3.13
2023-05-13T15:58:43.707Z,2.83
2023-05-13T16:01:29.298Z,2.92
2023-05-13T16:04:14.425Z,3.10
2023-05-13T16:06:59.831Z,3.58
2023-05-13T16:09:45.620Z,4.60
2023-05-13T16:12:31.438Z,3.95
2023-05-13T16:15:16.682Z,4.30
2023-05-13T16:18:01.775Z,4.18
2023-05-13T16:20:47.610Z,4.20
2023-05-13T16:23:32.972Z,3.97
2023-05-13T16:26:23.817Z,4.03
2023-05-13T16:29:09.206Z,3.95
2023-05-13T16:31:58.235Z,3.58
2023-05-13T16:34:43.424Z,3.47
2023-05-13T16:37:29.769Z,3.60
2023-05-13T16:40:15.429Z,3.28
2023-05-13T16:43:03.652Z,4.13
2023-05-13T16:45:48.985Z,3.80
2023-05-13T16:48:35.165Z,3.53
2023-05-13T16:51:20.252Z,3.80
2023-05-13T16:54:06.479Z,3.60
2023-05-13T16:56:51.937Z,3.53
2023-05-13T16:59:37.193Z,3.47
2023-05-13T17:02:22.485Z,3.92
2023-05-13T17:05:07.928Z,3.33
2023-05-13T17:07:55.463Z,4.05
2023-05-13T17:10:40.513Z,4.00
2023-05-13T17:13:25.993Z,3.80
2023-05-13T17:16:11.668Z,3.72
2023-05-13T17:18:59.093Z,3.85
2023-05-13T17:21:45.879Z,3.65
2023-05-13T17:24:31.611Z,3.50
2023-05-13T17:27:21.656Z,3.75
2023-05-13T17:30:08.171Z,4.35
2023-05-13T17:32:53.859Z,7.13
2023-05-13T17:35:42.930Z,4.65
2023-05-13T17:38:29.460Z,4.37
2023-05-13T17:41:17.899Z,4.43
2023-05-13T17:44:03.416Z,4.47
2023-05-13T17:46:48.532Z,3.50
2023-05-13T17:49:34.457Z,3.83
2023-05-13T17:52:19.816Z,3.60
2023-05-13T17:55:05.841Z,3.90
2023-05-13T17:57:51.024Z,4.32
2023-05-13T18:00:36.396Z,3.38
2023-05-13T18:03:21.865Z,4.47
2023-05-13T18:06:07.735Z,3.90
2023-05-13T18:08:53.970Z,3.55
2023-05-13T18:11:39.494Z,3.92
2023-05-13T18:14:24.893Z,3.50
2023-05-13T18:17:10.190Z,3.97
2023-05-13T18:19:55.808Z,4.30
2023-05-13T18:22:41.127Z,5.15
2023-05-13T18:25:26.524Z,4.03
2023-05-13T18:28:12.312Z,3.53
2023-05-13T18:30:59.936Z,3.70
2023-05-13T18:33:45.493Z,3.75
2023-05-13T18:36:30.888Z,3.90
2023-05-13T18:39:16.396Z,3.78
2023-05-13T18:42:01.530Z,3.95
2023-05-13T18:44:46.864Z,3.72
2023-05-13T18:47:32.154Z,4.03
2023-05-13T18:50:17.619Z,4.20
2023-05-13T18:53:03.246Z,3.92
2023-05-13T18:55:48.648Z,4.10
2023-05-13T18:58:33.986Z,4.30
2023-05-13T19:01:19.834Z,4.80
2023-05-13T19:04:05.392Z,5.10
2023-05-13T19:06:53.818Z,6.22
2023-05-13T19:09:38.822Z,5.15
2023-05-13T19:12:24.372Z,5.53
2023-05-13T19:15:09.801Z,5.40
2023-05-13T19:17:55.470Z,4.03
2023-05-13T19:20:41.133Z,4.75
2023-05-13T19:23:26.634Z,4.68
2023-05-13T19:26:12.181Z,4.93
2023-05-13T19:28:57.968Z,4.57
2023-05-13T19:31:43.156Z,4.88
2023-05-13T19:34:28.978Z,7.45
2023-05-13T19:37:14.450Z,6.07
2023-05-13T19:39:59.857Z,4.63
2023-05-13T19:42:47.452Z,5.15
2023-05-13T19:45:33.097Z,5.53
2023-05-13T19:48:18.601Z,5.55
2023-05-13T19:51:06.928Z,4.68
2023-05-13T19:53:52.412Z,5.15
2023-05-13T19:56:40.869Z,4.93
2023-05-13T19:59:26.032Z,5.18
2023-05-13T20:02:11.626Z,5.78
2023-05-13T20:04:57.423Z,4.05
2023-05-13T20:07:42.681Z,5.03
2023-05-13T20:10:28.682Z,5.18
2023-05-13T20:13:14.318Z,4.45
2023-05-13T20:15:59.468Z,5.30
2023-05-13T20:18:45.120Z,4.90
2023-05-13T20:21:30.856Z,5.45
2023-05-13T20:24:16.064Z,5.00
2023-05-13T20:27:01.596Z,5.38
2023-05-13T20:29:48.054Z,6.07
2023-05-13T20:32:33.543Z,5.75
2023-05-13T20:35:20.905Z,5.55
2023-05-13T20:38:07.375Z,5.80
2023-05-13T20:40:52.734Z,5.18
2023-05-13T20:43:38.557Z,5.32
2023-05-13T20:46:23.893Z,7.93
2023-05-13T20:49:12.760Z,6.15
2023-05-13T20:52:04.571Z,6.20
2023-05-13T20:54:51.204Z,6.70
2023-05-13T20:57:36.877Z,7.80
2023-05-13T21:00:24.115Z,6.57
2023-05-13T21:03:09.791Z,6.45
2023-05-13T21:05:55.448Z,6.97
2023-05-13T21:08:40.619Z,7.07
2023-05-13T21:11:26.246Z,6.78
2023-05-13T21:14:11.560Z,7.05
2023-05-13T21:16:56.675Z,6.45
2023-05-13T21:19:42.148Z,8.13
2023-05-13T21:22:27.491Z,7.03
2023-05-13T21:25:13.632Z,6.97
2023-05-13T21:28:00.284Z,7.07
2023-05-13T21:30:45.561Z,6.70
2023-05-13T21:33:30.747Z,6.60
2023-05-13T21:36:16.125Z,6.57
2023-05-13T21:39:01.312Z,6.85
2023-05-13T21:41:47.585Z,6.97
2023-05-13T21:44:33.059Z,7.78
2023-05-13T21:47:18.688Z,7.13
2023-05-13T21:50:04.413Z,8.00
2023-05-13T21:52:49.966Z,6.85
2023-05-13T21:55:37.642Z,7.72
2023-05-13T21:58:23.688Z,6.68
2023-05-13T22:01:09.151Z,7.00
2023-05-13T22:03:54.366Z,7.13
2023-05-13T22:06:39.513Z,7.80
2023-05-13T22:09:25.016Z,7.70
2023-05-13T22:12:10.373Z,6.97
2023-05-13T22:14:56.034Z,7.20
2023-05-13T22:17:41.189Z,8.60
2023-05-13T22:20:26.724Z,9.32
2023-05-13T22:23:11.826Z,9.95
2023-05-13T22:25:57.098Z,9.85
2023-05-13T22:28:42.464Z,10.98
2023-05-13T22:31:27.470Z,10.50
2023-05-13T22:34:13.105Z,10.90
2023-05-13T22:36:58.274Z,10.07
2023-05-13T22:39:43.781Z,10.10
2023-05-13T22:42:29.060Z,9.10
2023-05-13T22:45:14.205Z,8.45
2023-05-13T22:48:02.073Z,8.45
2023-05-13T22:50:50.684Z,8.68
2023-05-13T22:53:35.881Z,9.52
2023-05-13T22:56:21.828Z,8.38
2023-05-13T22:59:07.354Z,9.02
2023-05-13T23:01:52.529Z,9.27
2023-05-13T23:04:38.024Z,9.52
2023-05-13T23:07:23.319Z,8.05
2023-05-13T23:10:09.320Z,8.50
2023-05-13T23:12:54.580Z,8.50
2023-05-13T23:15:40.098Z,8.00
2023-05-13T23:18:25.332Z,8.48
2023-05-13T23:21:10.622Z,8.57
2023-05-13T23:24:00.010Z,8.52
2023-05-13T23:26:47.283Z,7.95
2023-05-13T23:29:32.706Z,7.70
2023-05-13T23:32:19.397Z,7.40
2023-05-13T23:35:05.274Z,7.38
2023-05-13T23:37:50.358Z,7.60
2023-05-13T23:40:36.238Z,7.53
2023-05-13T23:43:21.608Z,6.82
2023-05-13T23:46:06.825Z,7.55
2023-05-13T23:48:52.316Z,7.43
2023-05-13T23:51:38.450Z,7.25
2023-05-13T23:54:24.168Z,7.45
2023-05-13T23:57:09.139Z,7.25
2023-05-13T23:59:54.770Z,7.68
